Time;durP1;ratioP1;P1;durP2;ratioP2;P2;SDS_P1;SDS_P2;PMS_P1;PMS_P2;Temp;Humidity;BMP_temperature;BMP_pressure;BME280_temperature;BME280_humidity;BME280_pressure;Samples;Min_cycle;Max_cycle;Signal;HPM_P1;HPM_P2
2020/12/31 00:00:06;;;;;;;10.32;4.38;;;4.20;85.00;;;;;;4971683;28;20043;-88
2020/12/31 00:02:32;;;;;;;10.23;3.83;;;4.20;84.80;;;;;;4977441;28;20042;-86
2020/12/31 00:04:57;;;;;;;10.95;4.32;;;4.20;84.70;;;;;;4955895;28;20122;-86
2020/12/31 00:07:23;;;;;;;11.32;5.50;;;4.20;84.60;;;;;;4973462;28;20027;-84
2020/12/31 00:09:49;;;;;;;8.85;3.83;;;4.20;84.70;;;;;;4987938;28;20034;-84
2020/12/31 00:12:15;;;;;;;10.07;4.90;;;4.10;84.60;;;;;;4976609;28;20135;-86
2020/12/31 00:14:40;;;;;;;10.65;5.03;;;4.10;84.70;;;;;;4991941;28;20023;-85
2020/12/31 00:17:06;;;;;;;10.70;4.93;;;4.10;84.60;;;;;;4992345;28;20034;-87
2020/12/31 00:19:33;;;;;;;6.75;3.15;;;4.10;84.90;;;;;;4974691;28;20035;-87
2020/12/31 00:21:58;;;;;;;10.10;5.15;;;4.10;84.90;;;;;;4990678;28;20043;-86
2020/12/31 00:24:24;;;;;;;9.02;4.40;;;4.10;84.90;;;;;;4987987;28;20498;-86
2020/12/31 00:26:51;;;;;;;8.40;3.90;;;4.10;85.00;;;;;;4971783;28;20381;-86
2020/12/31 00:29:17;;;;;;;8.23;3.78;;;4.00;84.80;;;;;;4976526;28;20065;-86
2020/12/31 00:31:43;;;;;;;11.60;4.82;;;4.00;84.90;;;;;;4979147;28;20027;-86
2020/12/31 00:34:08;;;;;;;8.40;4.13;;;4.10;85.10;;;;;;4996326;28;20058;-87
2020/12/31 00:36:34;;;;;;;9.82;4.18;;;4.10;85.00;;;;;;4977988;28;20498;-87
2020/12/31 00:39:00;;;;;;;8.55;4.03;;;4.00;84.90;;;;;;4995257;28;20035;-87
2020/12/31 00:41:26;;;;;;;7.88;4.18;;;4.00;84.80;;;;;;4975063;28;20023;-87
2020/12/31 00:43:51;;;;;;;10.27;4.60;;;4.00;85.00;;;;;;4974900;28;20061;-87
2020/12/31 00:46:17;;;;;;;9.30;3.95;;;4.10;85.20;;;;;;4975318;28;20023;-87
2020/12/31 00:48:43;;;;;;;9.75;4.45;;;4.10;85.00;;;;;;4992905;28;20042;-86
2020/12/31 00:51:09;;;;;;;10.23;5.03;;;4.00;84.80;;;;;;4974312;28;20126;-87
2020/12/31 00:53:35;;;;;;;9.77;4.43;;;4.00;85.50;;;;;;4974744;28;20478;-87
2020/12/31 00:56:01;;;;;;;9.88;4.55;;;4.00;85.70;;;;;;4976413;28;20490;-87
2020/12/31 00:58:26;;;;;;;10.13;4.57;;;4.00;84.80;;;;;;4974622;28;20077;-87
2020/12/31 01:00:52;;;;;;;9.35;4.38;;;4.00;84.90;;;;;;4993978;28;20364;-87
2020/12/31 01:03:18;;;;;;;10.65;4.78;;;4.00;85.00;;;;;;4974425;28;20094;-87
2020/12/31 01:05:43;;;;;;;11.38;5.10;;;4.00;85.00;;;;;;4992771;28;20368;-87
2020/12/31 01:08:09;;;;;;;11.18;5.13;;;4.00;85.00;;;;;;4958578;28;20027;-87
2020/12/31 01:10:34;;;;;;;10.25;4.82;;;4.00;85.70;;;;;;4974976;28;20019;-87
2020/12/31 01:13:00;;;;;;;10.35;4.65;;;4.00;84.90;;;;;;4996600;28;20027;-85
2020/12/31 01:15:26;;;;;;;11.40;4.20;;;4.00;85.10;;;;;;4993565;28;20038;-85
2020/12/31 01:17:51;;;;;;;10.20;4.55;;;4.00;85.00;;;;;;4974341;28;20479;-85
2020/12/31 01:20:17;;;;;;;9.65;4.38;;;4.10;85.20;;;;;;4976066;28;20031;-86
2020/12/31 01:22:43;;;;;;;9.20;4.25;;;4.10;85.10;;;;;;4942993;28;20061;-85
2020/12/31 01:25:08;;;;;;;10.95;5.30;;;4.10;85.10;;;;;;4958779;28;20039;-86
2020/12/31 01:27:38;;;;;;;11.82;5.10;;;4.00;85.00;;;;;;4989625;28;20074;-86
2020/12/31 01:30:04;;;;;;;9.95;4.63;;;4.10;85.20;;;;;;4974063;28;20022;-88
2020/12/31 01:32:29;;;;;;;10.52;4.68;;;4.00;84.90;;;;;;4974450;28;20023;-88
2020/12/31 01:34:55;;;;;;;11.35;5.22;;;4.00;84.90;;;;;;4973491;28;20543;-88
2020/12/31 01:37:21;;;;;;;9.73;4.57;;;4.00;85.00;;;;;;4973634;28;20379;-88
2020/12/31 01:39:47;;;;;;;10.70;5.13;;;4.00;85.00;;;;;;4957912;28;20050;-88
2020/12/31 01:42:13;;;;;;;10.70;5.03;;;4.00;85.10;;;;;;4981883;28;20034;-86
2020/12/31 01:44:39;;;;;;;10.23;4.95;;;4.00;84.90;;;;;;4959716;28;20027;-84
2020/12/31 01:47:06;;;;;;;10.95;5.00;;;4.00;84.90;;;;;;4995514;28;20033;-85
2020/12/31 01:49:35;;;;;;;11.48;4.55;;;4.00;85.10;;;;;;4974082;28;20074;-85
2020/12/31 01:52:01;;;;;;;11.00;4.72;;;4.00;84.90;;;;;;4973742;28;20019;-84
2020/12/31 01:54:28;;;;;;;11.68;4.85;;;4.00;85.00;;;;;;4968938;28;20026;-85
2020/12/31 01:56:58;;;;;;;11.55;5.03;;;4.00;84.90;;;;;;4976092;28;20023;-89
2020/12/31 01:59:24;;;;;;;9.65;4.90;;;4.00;85.10;;;;;;4973641;28;20076;-88
2020/12/31 02:01:51;;;;;;;10.73;5.07;;;4.00;85.10;;;;;;4973548;28;20387;-88
2020/12/31 02:04:17;;;;;;;10.80;5.03;;;4.00;85.10;;;;;;4973442;28;20606;-86
2020/12/31 02:06:43;;;;;;;12.32;5.47;;;4.10;85.20;;;;;;4973746;28;20031;-87
2020/12/31 02:09:11;;;;;;;10.43;5.15;;;3.90;84.90;;;;;;4989535;28;20118;-86
2020/12/31 02:11:37;;;;;;;11.38;4.95;;;4.00;84.80;;;;;;4970018;28;20077;-88
2020/12/31 02:14:04;;;;;;;10.50;5.07;;;3.90;85.50;;;;;;4973040;28;20158;-87
2020/12/31 02:16:38;;;;;;;10.50;4.75;;;4.00;85.00;;;;;;4993073;28;20026;-87
2020/12/31 02:19:08;;;;;;;11.27;5.18;;;3.90;85.00;;;;;;4973023;28;20053;-86
2020/12/31 02:21:35;;;;;;;9.68;4.60;;;3.90;84.80;;;;;;4972923;28;20023;-85
2020/12/31 02:24:03;;;;;;;10.20;4.75;;;3.90;85.00;;;;;;4974189;28;20422;-85
2020/12/31 02:26:30;;;;;;;11.60;4.97;;;3.90;85.00;;;;;;4991482;28;20414;-85
2020/12/31 02:28:58;;;;;;;11.27;4.68;;;3.90;85.10;;;;;;4991215;28;20550;-85
2020/12/31 02:31:26;;;;;;;10.13;4.95;;;3.90;85.00;;;;;;4990534;28;20125;-85
2020/12/31 02:33:53;;;;;;;11.65;4.60;;;3.80;84.80;;;;;;4973406;28;20113;-85
2020/12/31 02:36:21;;;;;;;10.45;4.60;;;3.80;84.90;;;;;;4993149;28;20558;-85
2020/12/31 02:38:46;;;;;;;11.20;5.20;;;3.80;85.00;;;;;;4972970;28;20035;-84
2020/12/31 02:41:13;;;;;;;10.27;5.15;;;3.90;85.00;;;;;;4991889;28;20031;-85
2020/12/31 02:43:41;;;;;;;11.88;5.57;;;3.80;84.90;;;;;;4974194;28;20415;-85
2020/12/31 02:46:09;;;;;;;9.10;4.15;;;3.80;84.90;;;;;;4972589;28;20030;-85
2020/12/31 02:48:35;;;;;;;10.25;4.43;;;3.80;84.80;;;;;;4972676;28;20493;-85
2020/12/31 02:51:00;;;;;;;12.25;4.95;;;3.80;84.90;;;;;;4991793;28;20035;-85
2020/12/31 02:53:26;;;;;;;10.52;4.93;;;3.80;85.10;;;;;;4978503;28;20037;-86
2020/12/31 02:55:52;;;;;;;11.07;4.95;;;3.80;85.00;;;;;;4972951;28;20159;-86
2020/12/31 02:58:18;;;;;;;10.45;5.00;;;3.70;85.60;;;;;;4988402;28;20101;-85
2020/12/31 03:00:43;;;;;;;11.23;5.25;;;3.80;85.10;;;;;;4988948;28;20403;-85
2020/12/31 03:03:10;;;;;;;11.73;4.80;;;3.80;85.20;;;;;;4972350;28;20027;-85
2020/12/31 03:05:35;;;;;;;13.88;4.78;;;3.80;85.10;;;;;;4972848;28;20122;-86
2020/12/31 03:08:01;;;;;;;11.13;5.28;;;3.80;85.30;;;;;;4975857;28;20408;-86
2020/12/31 03:10:27;;;;;;;11.32;5.50;;;3.80;85.20;;;;;;4973783;28;20054;-86
2020/12/31 03:12:53;;;;;;;12.20;4.63;;;3.80;85.30;;;;;;4969209;28;20051;-86
2020/12/31 03:15:21;;;;;;;9.95;4.60;;;3.80;85.20;;;;;;4988732;28;20054;-86
2020/12/31 03:17:46;;;;;;;10.15;4.72;;;3.80;85.00;;;;;;4977267;28;20030;-86
2020/12/31 03:20:12;;;;;;;11.93;5.55;;;3.80;85.00;;;;;;4973399;28;20089;-86
2020/12/31 03:22:38;;;;;;;11.75;5.22;;;3.70;84.80;;;;;;4992326;28;20407;-86
2020/12/31 03:25:04;;;;;;;11.25;4.95;;;3.70;84.60;;;;;;4972285;28;20041;-86
2020/12/31 03:27:30;;;;;;;10.60;5.22;;;3.60;84.40;;;;;;4975059;28;20391;-86
2020/12/31 03:29:56;;;;;;;10.98;5.25;;;3.50;84.40;;;;;;4969417;28;20023;-86
2020/12/31 03:32:21;;;;;;;10.82;4.90;;;3.50;84.30;;;;;;4972261;28;20023;-86
2020/12/31 03:34:47;;;;;;;11.93;5.32;;;3.40;84.10;;;;;;4973665;28;20029;-86
2020/12/31 03:37:13;;;;;;;11.70;5.75;;;3.30;84.00;;;;;;4992613;28;20031;-86
2020/12/31 03:39:38;;;;;;;13.55;5.65;;;3.20;83.80;;;;;;4992271;28;20127;-86
2020/12/31 03:42:05;;;;;;;12.88;5.95;;;3.00;83.60;;;;;;4978046;28;20023;-84
2020/12/31 03:44:31;;;;;;;11.52;5.15;;;3.00;83.90;;;;;;4974967;28;20395;-84
2020/12/31 03:46:56;;;;;;;9.73;4.82;;;2.80;83.70;;;;;;4990592;28;20114;-84
2020/12/31 03:49:22;;;;;;;12.57;5.55;;;2.80;83.80;;;;;;4972178;28;20479;-84
2020/12/31 03:51:47;;;;;;;10.98;4.57;;;2.90;84.20;;;;;;4972733;28;20070;-85
2020/12/31 03:54:13;;;;;;;11.25;5.60;;;2.80;84.90;;;;;;4958551;28;20475;-85
2020/12/31 03:56:39;;;;;;;11.80;5.68;;;3.00;85.10;;;;;;4972965;28;20023;-86
2020/12/31 03:59:05;;;;;;;11.13;4.60;;;2.90;84.90;;;;;;4973263;28;20419;-85
2020/12/31 04:01:31;;;;;;;11.25;5.45;;;2.90;84.70;;;;;;4991512;28;20030;-85
2020/12/31 04:03:57;;;;;;;9.40;4.45;;;2.90;84.60;;;;;;4993718;28;20019;-86
2020/12/31 04:06:23;;;;;;;11.88;5.30;;;2.90;84.30;;;;;;4960015;28;20081;-86
2020/12/31 04:08:49;;;;;;;10.85;5.30;;;2.70;84.30;;;;;;4959389;28;20077;-86
2020/12/31 04:11:15;;;;;;;12.57;5.40;;;2.60;83.50;;;;;;4979420;28;20023;-86
2020/12/31 04:13:40;;;;;;;10.85;5.25;;;2.50;83.40;;;;;;4979580;28;20019;-86
2020/12/31 04:16:06;;;;;;;11.30;5.00;;;2.40;83.30;;;;;;4979674;28;20035;-85
2020/12/31 04:18:32;;;;;;;12.13;5.05;;;2.30;83.30;;;;;;4995457;28;20208;-85
2020/12/31 04:20:58;;;;;;;11.77;5.35;;;2.10;83.20;;;;;;4975925;28;20046;-86
2020/12/31 04:23:24;;;;;;;12.27;5.32;;;2.00;83.30;;;;;;4975767;28;20042;-85
2020/12/31 04:25:51;;;;;;;12.63;5.30;;;2.00;83.30;;;;;;4993183;28;20129;-85
2020/12/31 04:28:16;;;;;;;11.60;4.97;;;1.90;83.40;;;;;;4976432;28;20109;-87
2020/12/31 04:30:46;;;;;;;12.35;5.72;;;1.80;83.40;;;;;;4975339;28;20453;-87
2020/12/31 04:33:12;;;;;;;11.75;5.47;;;1.60;83.40;;;;;;4975354;28;20467;-87
2020/12/31 04:35:37;;;;;;;11.43;5.55;;;1.70;83.50;;;;;;4994690;28;20037;-86
2020/12/31 04:38:03;;;;;;;12.55;5.68;;;1.60;83.50;;;;;;4977112;28;20023;-86
2020/12/31 04:40:28;;;;;;;12.60;5.78;;;1.50;83.60;;;;;;4990790;28;20360;-87
2020/12/31 04:42:56;;;;;;;12.95;5.90;;;1.50;83.60;;;;;;4992619;28;20019;-87
2020/12/31 04:45:22;;;;;;;13.32;6.18;;;1.50;83.70;;;;;;4960386;28;20031;-87
2020/12/31 04:48:21;;;;;;;13.02;6.07;;;1.40;83.60;;;;;;4995244;28;20023;-86
2020/12/31 04:50:48;;;;;;;13.15;6.28;;;1.30;83.60;;;;;;4974079;28;20027;-86
2020/12/31 04:53:14;;;;;;;12.60;5.57;;;1.30;83.60;;;;;;4976786;28;20026;-86
2020/12/31 04:55:45;;;;;;;14.73;6.10;;;1.20;83.70;;;;;;4974738;28;20031;-86
2020/12/31 04:58:13;;;;;;;12.75;6.15;;;1.20;83.90;;;;;;4971666;28;20121;-86
2020/12/31 05:00:39;;;;;;;14.93;6.60;;;1.20;84.10;;;;;;4993912;28;20471;-85
2020/12/31 05:03:07;;;;;;;13.20;5.63;;;1.20;85.10;;;;;;4976179;28;20023;-87
2020/12/31 05:05:34;;;;;;;13.27;5.65;;;1.30;85.10;;;;;;4996402;28;20030;-87
2020/12/31 05:08:00;;;;;;;11.77;5.82;;;1.40;85.40;;;;;;4959692;28;20414;-87
2020/12/31 05:10:27;;;;;;;16.30;6.63;;;1.50;85.50;;;;;;4995512;28;20494;-86
2020/12/31 05:13:08;;;;;;;12.32;5.78;;;1.60;85.40;;;;;;4993967;28;20034;-87
2020/12/31 05:15:41;;;;;;;12.50;6.03;;;1.80;85.50;;;;;;4992249;28;20066;-86
2020/12/31 05:18:23;;;;;;;15.38;6.47;;;1.80;85.30;;;;;;4994198;28;20373;-86
2020/12/31 05:20:53;;;;;;;14.70;6.07;;;1.80;85.30;;;;;;4975750;28;20042;-87
2020/12/31 05:23:29;;;;;;;13.35;5.75;;;1.90;85.40;;;;;;4975703;28;20039;-86
2020/12/31 05:25:56;;;;;;;13.88;6.40;;;2.00;86.00;;;;;;4974222;28;20027;-87
2020/12/31 05:28:34;;;;;;;12.82;6.10;;;2.00;85.40;;;;;;4974041;28;20054;-87
2020/12/31 05:31:13;;;;;;;14.02;5.93;;;2.10;85.50;;;;;;4974359;28;20027;-87
2020/12/31 05:33:40;;;;;;;15.60;6.28;;;2.10;85.50;;;;;;4992124;28;20018;-85
2020/12/31 05:36:17;;;;;;;12.82;6.70;;;2.10;85.50;;;;;;4974012;28;20122;-86
2020/12/31 05:38:45;;;;;;;15.23;6.57;;;2.20;85.50;;;;;;4974003;28;20015;-86
2020/12/31 05:41:11;;;;;;;14.77;5.95;;;2.20;86.10;;;;;;4991575;28;20050;-85
2020/12/31 05:43:39;;;;;;;11.45;5.22;;;2.20;85.30;;;;;;4973960;28;20027;-86
2020/12/31 05:46:12;;;;;;;11.95;5.40;;;2.20;85.20;;;;;;4973791;28;20022;-86
2020/12/31 05:48:38;;;;;;;14.20;6.50;;;2.30;85.30;;;;;;4992348;28;20697;-86
2020/12/31 05:51:35;;;;;;;12.60;6.22;;;2.30;85.20;;;;;;4975392;28;20379;-87
2020/12/31 05:54:08;;;;;;;13.10;5.82;;;2.20;85.10;;;;;;4965763;28;20030;-85
2020/12/31 05:56:36;;;;;;;13.25;6.28;;;2.20;85.20;;;;;;4975000;28;20560;-86
2020/12/31 05:59:24;;;;;;;13.15;5.85;;;2.30;85.20;;;;;;4973378;28;20030;-85
2020/12/31 06:01:54;;;;;;;12.90;6.13;;;2.30;85.30;;;;;;4974340;28;20058;-85
2020/12/31 06:04:20;;;;;;;15.05;6.38;;;2.30;85.30;;;;;;4974965;28;20058;-84
2020/12/31 06:06:52;;;;;;;12.75;5.72;;;2.30;85.40;;;;;;4975266;28;20035;-85
2020/12/31 06:09:29;;;;;;;15.25;6.20;;;2.30;85.40;;;;;;4973481;28;20058;-85
2020/12/31 06:11:58;;;;;;;13.68;6.03;;;2.40;85.50;;;;;;4979692;28;20545;-85
2020/12/31 06:14:27;;;;;;;13.75;6.60;;;2.40;85.50;;;;;;4988185;28;20023;-83
2020/12/31 06:16:57;;;;;;;14.10;5.75;;;2.40;85.50;;;;;;4993340;28;20031;-80
2020/12/31 06:19:38;;;;;;;13.00;5.93;;;2.50;85.90;;;;;;4990690;28;20046;-80
2020/12/31 06:22:10;;;;;;;15.13;6.57;;;2.50;85.90;;;;;;4971659;28;20038;-80
2020/12/31 06:24:37;;;;;;;14.00;6.35;;;2.60;85.80;;;;;;4972726;28;20030;-81
2020/12/31 06:27:13;;;;;;;15.95;6.65;;;2.60;85.80;;;;;;4974191;28;20110;-81
2020/12/31 06:29:50;;;;;;;16.02;6.97;;;2.60;85.60;;;;;;4974414;28;20031;-80
2020/12/31 06:32:25;;;;;;;15.10;7.20;;;2.70;85.70;;;;;;4991138;28;20482;-80
2020/12/31 06:34:51;;;;;;;15.80;7.28;;;2.70;85.70;;;;;;4975746;28;20375;-81
2020/12/31 06:37:17;;;;;;;19.27;8.40;;;2.70;85.50;;;;;;4992516;28;20053;-81
2020/12/31 06:39:43;;;;;;;19.25;7.63;;;2.70;85.40;;;;;;4967931;28;20495;-80
2020/12/31 06:42:08;;;;;;;16.52;8.57;;;2.70;85.40;;;;;;4991205;28;20126;-82
2020/12/31 06:44:34;;;;;;;19.42;8.05;;;2.70;85.40;;;;;;4973421;28;20090;-81
2020/12/31 06:47:00;;;;;;;17.17;8.18;;;2.70;85.40;;;;;;4973539;28;20062;-81
2020/12/31 06:49:52;;;;;;;17.80;8.85;;;2.70;85.50;;;;;;4972952;28;20037;-81
2020/12/31 06:52:22;;;;;;;15.52;7.22;;;2.60;85.00;;;;;;4990239;28;20055;-80
2020/12/31 06:54:49;;;;;;;15.35;6.78;;;2.50;84.60;;;;;;4973195;28;20045;-81
2020/12/31 06:57:50;;;;;;;13.85;6.70;;;2.40;84.30;;;;;;4974266;28;20411;-81
2020/12/31 07:00:29;;;;;;;16.70;7.18;;;2.30;84.20;;;;;;4958017;28;20050;-80
2020/12/31 07:02:54;;;;;;;15.98;7.35;;;2.20;84.20;;;;;;4968410;28;20038;-82
2020/12/31 07:05:21;;;;;;;14.95;6.63;;;2.10;84.20;;;;;;4991458;28;20046;-82
2020/12/31 07:07:47;;;;;;;15.13;6.47;;;2.10;84.20;;;;;;4972271;28;20034;-78
2020/12/31 07:10:13;;;;;;;13.20;6.28;;;2.00;84.30;;;;;;4972435;28;20030;-80
2020/12/31 07:12:45;;;;;;;15.50;7.80;;;1.90;84.40;;;;;;4988770;28;20034;-81
2020/12/31 07:15:16;;;;;;;14.52;6.47;;;1.90;84.40;;;;;;4972454;28;20023;-79
2020/12/31 07:17:44;;;;;;;13.93;6.75;;;1.90;84.50;;;;;;4990437;28;20073;-80
2020/12/31 07:20:13;;;;;;;16.98;7.45;;;1.80;84.40;;;;;;4977465;28;20065;-79
2020/12/31 07:22:40;;;;;;;16.75;7.22;;;1.90;84.80;;;;;;4973032;28;20391;-79
2020/12/31 07:25:11;;;;;;;17.58;7.10;;;1.80;84.60;;;;;;4971538;28;20031;-79
2020/12/31 07:27:39;;;;;;;15.05;6.50;;;1.80;84.60;;;;;;4971410;28;20027;-79
2020/12/31 07:30:07;;;;;;;14.50;6.43;;;1.80;84.40;;;;;;4972631;28;20015;-80
2020/12/31 07:33:01;;;;;;;15.45;7.20;;;1.70;84.30;;;;;;4987928;28;20031;-80
2020/12/31 07:35:29;;;;;;;14.73;7.03;;;1.70;84.40;;;;;;4985767;28;20023;-82
2020/12/31 07:38:07;;;;;;;14.82;7.20;;;1.60;84.40;;;;;;4989056;28;20034;-82
2020/12/31 07:40:37;;;;;;;14.77;6.55;;;1.60;84.40;;;;;;4975920;28;20031;-82
2020/12/31 07:43:04;;;;;;;16.98;7.10;;;1.60;84.50;;;;;;4975878;28;20069;-82
2020/12/31 07:45:31;;;;;;;14.20;6.28;;;1.60;84.50;;;;;;4992934;28;20065;-81
2020/12/31 07:47:58;;;;;;;19.85;7.43;;;1.60;84.50;;;;;;4974443;28;21106;-80
2020/12/31 07:50:24;;;;;;;14.35;6.93;;;1.50;84.30;;;;;;4996458;28;20114;-80
2020/12/31 07:52:50;;;;;;;13.52;6.63;;;1.50;84.40;;;;;;4975633;28;20015;-81
2020/12/31 07:55:16;;;;;;;18.00;7.13;;;1.50;84.60;;;;;;4995093;28;20039;-80
2020/12/31 07:57:42;;;;;;;15.10;6.88;;;1.50;84.70;;;;;;4975712;28;20026;-80
2020/12/31 08:00:16;;;;;;;14.75;6.97;;;1.50;84.70;;;;;;4993793;28;20042;-80
2020/12/31 08:02:54;;;;;;;18.27;7.57;;;1.50;84.80;;;;;;4974429;28;20090;-81
2020/12/31 08:05:22;;;;;;;16.38;7.50;;;1.60;84.70;;;;;;4975779;28;20019;-80
2020/12/31 08:07:56;;;;;;;18.25;7.20;;;1.60;84.60;;;;;;4976624;28;20026;-80
2020/12/31 08:10:23;;;;;;;14.38;6.70;;;1.50;84.60;;;;;;4974271;28;20034;-82
2020/12/31 08:12:53;;;;;;;17.35;6.82;;;1.50;84.80;;;;;;4975598;28;20383;-83
2020/12/31 08:15:21;;;;;;;17.48;6.38;;;1.50;84.70;;;;;;4975516;28;20370;-81
2020/12/31 08:17:55;;;;;;;16.63;8.18;;;1.50;84.70;;;;;;4996716;28;20031;-82
2020/12/31 08:20:23;;;;;;;17.48;8.23;;;1.60;84.80;;;;;;4974152;28;20035;-82
2020/12/31 08:22:51;;;;;;;16.10;7.15;;;1.60;84.70;;;;;;4954720;28;583607;-81
2020/12/31 08:25:24;;;;;;;15.50;7.47;;;1.50;84.60;;;;;;4997835;28;20030;-81
2020/12/31 08:28:02;;;;;;;14.48;6.53;;;1.50;84.70;;;;;;4975178;28;20030;-81
2020/12/31 08:30:27;;;;;;;14.60;6.95;;;1.50;84.70;;;;;;4975896;28;20027;-81
2020/12/31 08:32:59;;;;;;;15.52;6.88;;;1.50;84.80;;;;;;4991553;28;20030;-81
2020/12/31 08:35:42;;;;;;;16.33;7.20;;;1.60;84.90;;;;;;4974933;28;20027;-82
2020/12/31 08:38:12;;;;;;;16.10;6.45;;;1.50;84.70;;;;;;4976234;28;20106;-82
2020/12/31 08:40:45;;;;;;;14.02;6.57;;;1.50;84.80;;;;;;4975140;28;20023;-82
2020/12/31 08:43:19;;;;;;;17.48;7.20;;;1.50;84.80;;;;;;4976395;28;20383;-82
2020/12/31 08:45:46;;;;;;;15.23;6.53;;;1.50;84.90;;;;;;4992506;28;20080;-82
2020/12/31 08:48:31;;;;;;;12.88;5.95;;;1.50;85.00;;;;;;4974687;28;20066;-82
2020/12/31 08:51:13;;;;;;;16.20;7.43;;;1.50;85.00;;;;;;4991550;28;20035;-82
2020/12/31 08:53:59;;;;;;;13.10;6.57;;;1.50;84.90;;;;;;4991054;28;20086;-81
2020/12/31 08:56:27;;;;;;;16.35;6.22;;;1.50;85.10;;;;;;4957668;28;20031;-81
2020/12/31 08:59:05;;;;;;;17.42;7.78;;;1.50;85.10;;;;;;4973696;28;20045;-84
2020/12/31 09:01:31;;;;;;;15.48;7.07;;;1.60;85.10;;;;;;4975539;28;20455;-82
2020/12/31 09:04:06;;;;;;;18.25;6.88;;;1.50;85.10;;;;;;4993037;28;20423;-80
2020/12/31 09:06:32;;;;;;;14.20;7.18;;;1.60;85.30;;;;;;4974285;28;20041;-80
2020/12/31 09:08:58;;;;;;;15.80;6.88;;;1.60;85.40;;;;;;4996031;28;20526;-82
2020/12/31 09:11:25;;;;;;;12.02;6.18;;;1.70;85.50;;;;;;4993849;28;20035;-81
2020/12/31 09:13:51;;;;;;;13.77;6.30;;;1.70;85.60;;;;;;4995519;28;20034;-82
2020/12/31 09:16:17;;;;;;;15.93;6.60;;;1.80;85.70;;;;;;4976565;28;20034;-82
2020/12/31 09:18:43;;;;;;;13.00;5.68;;;1.90;85.70;;;;;;4944836;28;20041;-82
2020/12/31 09:21:10;;;;;;;15.80;6.80;;;1.90;85.90;;;;;;4974770;28;20031;-82
2020/12/31 09:23:36;;;;;;;14.20;6.50;;;2.00;85.90;;;;;;4973537;28;20093;-82
2020/12/31 09:26:04;;;;;;;15.00;6.88;;;2.10;85.80;;;;;;4978952;28;20384;-82
2020/12/31 09:28:30;;;;;;;13.10;5.68;;;2.10;85.80;;;;;;4974443;28;20050;-83
2020/12/31 09:31:00;;;;;;;15.35;6.32;;;2.10;85.80;;;;;;4977371;28;20034;-82
2020/12/31 09:33:25;;;;;;;12.50;5.72;;;2.20;85.80;;;;;;4975592;28;20471;-81
2020/12/31 09:35:51;;;;;;;13.00;5.68;;;2.20;85.90;;;;;;4992117;28;20041;-81
2020/12/31 09:38:17;;;;;;;15.60;6.65;;;2.30;85.90;;;;;;4995247;28;20034;-82
2020/12/31 09:40:44;;;;;;;11.77;5.00;;;2.30;86.00;;;;;;4988666;28;20047;-82
2020/12/31 09:43:10;;;;;;;10.85;4.93;;;2.40;86.00;;;;;;4978422;28;20026;-82
2020/12/31 09:45:38;;;;;;;11.45;4.75;;;2.50;86.40;;;;;;4992506;28;20027;-82
2020/12/31 09:48:05;;;;;;;12.68;5.18;;;2.60;86.60;;;;;;4993092;28;20022;-82
2020/12/31 09:50:31;;;;;;;11.13;4.50;;;2.70;86.70;;;;;;4973993;28;20101;-82
2020/12/31 09:52:57;;;;;;;10.23;4.32;;;2.80;86.40;;;;;;4991678;28;20034;-82
2020/12/31 09:55:24;;;;;;;12.00;4.85;;;2.90;86.70;;;;;;4973604;28;20039;-82
2020/12/31 09:57:50;;;;;;;11.43;4.72;;;3.10;87.10;;;;;;4973555;28;20027;-83
2020/12/31 10:00:15;;;;;;;11.70;4.72;;;3.30;87.40;;;;;;4993069;28;20041;-82
2020/12/31 10:02:41;;;;;;;9.77;4.45;;;3.50;88.00;;;;;;4991743;28;20375;-82
2020/12/31 10:05:07;;;;;;;9.85;4.68;;;3.60;87.20;;;;;;4992701;28;20082;-82
2020/12/31 10:07:32;;;;;;;11.20;4.75;;;3.80;87.30;;;;;;4947749;28;20069;-81
2020/12/31 10:09:59;;;;;;;11.07;4.72;;;4.00;87.40;;;;;;4989531;28;20054;-81
2020/12/31 10:12:24;;;;;;;10.18;4.60;;;4.20;87.70;;;;;;4978424;28;20027;-80
2020/12/31 10:14:51;;;;;;;10.70;4.75;;;4.40;88.10;;;;;;4973526;28;20031;-80
2020/12/31 10:17:16;;;;;;;9.82;4.53;;;4.70;88.20;;;;;;4977293;28;20035;-80
2020/12/31 10:19:42;;;;;;;10.75;4.57;;;4.90;88.10;;;;;;4977197;28;20451;-82
2020/12/31 10:22:08;;;;;;;12.38;5.07;;;5.10;88.30;;;;;;4972898;28;20500;-82
2020/12/31 10:24:34;;;;;;;9.02;3.95;;;5.40;88.30;;;;;;4974623;28;20015;-81
2020/12/31 10:27:00;;;;;;;9.95;3.80;;;5.50;86.80;;;;;;4975073;28;20039;-81
2020/12/31 10:29:27;;;;;;;9.88;4.13;;;5.60;88.00;;;;;;4978272;28;20022;-82
2020/12/31 10:31:53;;;;;;;8.82;3.72;;;5.90;88.80;;;;;;4988081;28;20031;-81
2020/12/31 10:34:20;;;;;;;8.68;3.72;;;6.20;89.00;;;;;;4973231;28;20482;-82
2020/12/31 10:36:50;;;;;;;9.43;4.10;;;6.40;88.60;;;;;;4974412;28;20031;-83
2020/12/31 10:39:16;;;;;;;8.75;3.58;;;6.60;88.50;;;;;;4974588;28;20471;-83
2020/12/31 10:41:42;;;;;;;6.85;3.30;;;6.80;88.50;;;;;;4974396;28;20035;-83
2020/12/31 10:44:07;;;;;;;7.88;3.20;;;7.10;88.70;;;;;;4973774;28;20070;-82
2020/12/31 10:46:34;;;;;;;8.68;3.63;;;7.40;88.90;;;;;;4993712;28;20023;-82
2020/12/31 10:49:00;;;;;;;6.68;3.17;;;7.60;89.50;;;;;;4968164;28;20119;-83
2020/12/31 10:51:25;;;;;;;8.10;3.10;;;7.80;88.70;;;;;;4992494;28;20466;-83
2020/12/31 10:53:51;;;;;;;8.70;3.42;;;8.00;88.60;;;;;;4974609;28;20085;-83
2020/12/31 10:56:20;;;;;;;10.65;3.45;;;8.20;88.70;;;;;;4972918;28;20057;-81
2020/12/31 10:58:46;;;;;;;9.18;3.60;;;8.30;87.90;;;;;;4968584;28;20491;-81
2020/12/31 11:01:14;;;;;;;7.13;2.92;;;8.40;87.70;;;;;;4990079;28;20039;-81
2020/12/31 11:03:42;;;;;;;8.13;2.92;;;8.30;86.70;;;;;;4992888;28;20102;-81
2020/12/31 11:06:09;;;;;;;7.78;2.85;;;8.30;86.50;;;;;;4972545;28;20494;-81
2020/12/31 11:08:35;;;;;;;6.90;2.83;;;8.30;86.80;;;;;;4973509;28;20042;-81
2020/12/31 11:11:00;;;;;;;9.95;3.08;;;8.30;86.70;;;;;;4973987;28;20538;-81
2020/12/31 11:13:26;;;;;;;6.93;2.67;;;8.20;86.40;;;;;;4973988;28;20030;-81
2020/12/31 11:15:52;;;;;;;6.78;2.83;;;8.20;86.60;;;;;;4994255;28;20026;-81
2020/12/31 11:18:17;;;;;;;8.23;3.47;;;8.20;87.40;;;;;;4972284;28;20483;-81
2020/12/31 11:20:43;;;;;;;7.15;2.95;;;8.20;86.10;;;;;;4977094;28;20042;-80
2020/12/31 11:23:08;;;;;;;7.28;3.15;;;8.20;86.70;;;;;;4971507;28;20395;-81
2020/12/31 11:25:34;;;;;;;7.30;3.08;;;8.30;87.30;;;;;;4956924;28;20042;-80
2020/12/31 11:28:00;;;;;;;7.30;2.90;;;8.50;89.00;;;;;;4963254;28;20435;-80
2020/12/31 11:30:25;;;;;;;9.73;3.75;;;8.90;89.20;;;;;;4987246;28;20039;-80
2020/12/31 11:32:51;;;;;;;5.60;2.72;;;9.20;89.40;;;;;;4973862;28;20022;-83
2020/12/31 11:35:16;;;;;;;6.78;2.88;;;9.50;88.90;;;;;;4990626;28;20031;-82
2020/12/31 11:37:42;;;;;;;6.28;3.00;;;9.80;88.60;;;;;;4977985;28;20047;-82
2020/12/31 11:40:08;;;;;;;7.65;3.08;;;10.00;89.10;;;;;;4972183;28;20039;-82
2020/12/31 11:42:35;;;;;;;7.55;3.00;;;10.20;89.20;;;;;;4993789;28;20522;-82
2020/12/31 11:45:01;;;;;;;6.65;2.83;;;10.50;88.90;;;;;;4990919;28;20027;-82
2020/12/31 11:47:27;;;;;;;8.65;3.42;;;10.80;88.70;;;;;;4972396;28;20082;-82
2020/12/31 11:49:53;;;;;;;4.97;1.95;;;10.90;87.90;;;;;;4995959;28;20487;-82
2020/12/31 11:52:18;;;;;;;6.43;2.70;;;10.90;87.60;;;;;;4972230;28;20955;-82
2020/12/31 11:54:44;;;;;;;6.53;2.40;;;10.90;86.80;;;;;;4978506;28;20038;-83
2020/12/31 11:57:10;;;;;;;6.95;2.80;;;10.90;86.70;;;;;;4942915;28;20117;-85
2020/12/31 11:59:35;;;;;;;6.20;2.53;;;10.90;87.00;;;;;;4972575;28;20454;-84
2020/12/31 12:02:01;;;;;;;6.28;2.83;;;10.90;86.70;;;;;;4972201;28;20130;-84
2020/12/31 12:04:26;;;;;;;6.15;2.67;;;11.00;86.80;;;;;;4973630;28;20031;-83
2020/12/31 12:06:54;;;;;;;6.25;2.60;;;10.90;86.70;;;;;;4989239;28;20038;-83
2020/12/31 12:09:23;;;;;;;5.55;2.35;;;11.10;87.80;;;;;;4972588;28;20038;-83
2020/12/31 12:11:51;;;;;;;5.30;2.40;;;11.20;87.70;;;;;;4995648;28;20399;-83
2020/12/31 12:14:17;;;;;;;6.85;2.92;;;11.40;87.40;;;;;;4973363;28;20352;-83
2020/12/31 12:16:47;;;;;;;5.22;2.20;;;11.50;87.70;;;;;;4993325;28;20023;-83
2020/12/31 12:19:13;;;;;;;7.13;2.88;;;11.60;87.90;;;;;;4957049;28;20045;-83
2020/12/31 12:21:38;;;;;;;6.13;2.30;;;11.70;87.60;;;;;;4971287;28;20035;-83
2020/12/31 12:24:05;;;;;;;5.35;2.35;;;11.50;85.30;;;;;;4975205;28;20026;-83
2020/12/31 12:26:38;;;;;;;6.47;2.45;;;11.60;86.50;;;;;;4993875;28;20170;-83
2020/12/31 12:29:05;;;;;;;4.30;2.47;;;11.60;85.90;;;;;;5003387;28;20082;-84
2020/12/31 12:31:37;;;;;;;5.95;2.47;;;11.50;86.40;;;;;;4975205;28;20119;-83
2020/12/31 12:34:03;;;;;;;4.82;2.15;;;11.60;86.50;;;;;;4994739;28;20027;-83
2020/12/31 12:36:31;;;;;;;5.00;2.10;;;11.70;86.90;;;;;;4975478;28;20467;-83
2020/12/31 12:38:56;;;;;;;3.85;1.88;;;11.70;86.40;;;;;;4974923;28;20030;-83
2020/12/31 12:41:23;;;;;;;6.30;2.70;;;11.80;86.60;;;;;;4995040;28;20376;-81
2020/12/31 12:43:49;;;;;;;4.88;2.20;;;11.80;85.90;;;;;;4978482;28;20383;-83
2020/12/31 12:46:19;;;;;;;4.75;2.00;;;11.90;86.50;;;;;;4996742;28;20042;-82
2020/12/31 12:48:45;;;;;;;3.03;1.63;;;11.90;86.20;;;;;;4976377;28;20023;-84
2020/12/31 12:51:11;;;;;;;3.90;2.10;;;12.00;85.90;;;;;;4974646;28;20038;-84